createdAt,value
2022-10-17T00:00:12.014Z,21.362
2022-10-17T00:01:11.787Z,21.3683
2022-10-17T00:02:11.910Z,21.3683
2022-10-17T00:03:11.798Z,21.35
2022-10-17T00:04:11.127Z,21.339
2022-10-17T00:05:12.081Z,21.362
2022-10-17T00:06:11.824Z,21.34
2022-10-17T00:07:11.491Z,21.35
2022-10-17T00:08:11.774Z,21.362
2022-10-17T00:09:12.116Z,21.3683
2022-10-17T00:10:10.417Z,21.3216
2022-10-17T00:11:12.199Z,21.3
2022-10-17T00:12:11.962Z,21.3158
2022-10-17T00:13:11.314Z,21.316
2022-10-17T00:14:12.093Z,21.305
2022-10-17T00:15:11.707Z,21.295
2022-10-17T00:16:11.576Z,21.316
2022-10-17T00:17:11.917Z,21.362
2022-10-17T00:18:11.778Z,21.3741
2022-10-17T00:19:11.675Z,21.39
2022-10-17T00:20:11.851Z,21.404
2022-10-17T00:21:12.271Z,21.44
2022-10-17T00:22:11.635Z,21.45
2022-10-17T00:23:10.866Z,21.465
2022-10-17T00:24:11.990Z,21.44
2022-10-17T00:25:11.575Z,21.435
2022-10-17T00:26:11.973Z,21.415
2022-10-17T00:27:11.850Z,21.42
2022-10-17T00:28:11.737Z,21.44
2022-10-17T00:29:15.423Z,21.472
2022-10-17T00:30:11.962Z,21.489
2022-10-17T00:31:12.856Z,21.515
2022-10-17T00:32:11.605Z,21.515
2022-10-17T00:33:11.637Z,21.54
2022-10-17T00:34:12.046Z,21.55
2022-10-17T00:35:11.721Z,21.585
2022-10-17T00:36:12.095Z,21.555
2022-10-17T00:37:12.622Z,21.55
2022-10-17T00:38:12.043Z,21.56
2022-10-17T00:39:11.827Z,21.575
2022-10-17T00:40:13.916Z,21.56
2022-10-17T00:41:12.349Z,21.545
2022-10-17T00:42:13.299Z,21.57
2022-10-17T00:43:12.328Z,21.58
2022-10-17T00:44:11.901Z,21.535
2022-10-17T00:45:12.639Z,21.53
2022-10-17T00:46:12.524Z,21.545
2022-10-17T00:47:11.684Z,21.535
2022-10-17T00:48:12.696Z,21.48
2022-10-17T00:49:12.947Z,21.435
2022-10-17T00:50:12.066Z,21.43
2022-10-17T00:51:12.821Z,21.445
2022-10-17T00:52:13.090Z,21.45
2022-10-17T00:53:11.897Z,21.435
2022-10-17T00:54:12.677Z,21.46
2022-10-17T00:55:12.281Z,21.46
2022-10-17T00:56:12.045Z,21.49
2022-10-17T00:57:12.631Z,21.505
2022-10-17T00:58:11.739Z,21.48
2022-10-17T00:59:11.295Z,21.456
2022-10-17T01:00:12.103Z,21.4261
2022-10-17T01:01:11.685Z,21.44
2022-10-17T01:02:12.164Z,21.45
2022-10-17T01:03:12.487Z,21.4307
2022-10-17T01:04:12.338Z,21.4181
2022-10-17T01:05:11.416Z,21.42
2022-10-17T01:06:12.445Z,21.43
2022-10-17T01:07:12.241Z,21.415
2022-10-17T01:08:10.913Z,21.45
2022-10-17T01:09:12.745Z,21.44
2022-10-17T01:10:15.403Z,21.383
2022-10-17T01:11:12.647Z,21.38
2022-10-17T01:12:12.290Z,21.38
2022-10-17T01:13:12.011Z,21.4
2022-10-17T01:14:11.041Z,21.44
2022-10-17T01:15:12.433Z,21.48
2022-10-17T01:16:10.959Z,21.485
2022-10-17T01:17:14.248Z,21.495
2022-10-17T01:18:11.237Z,21.5054
2022-10-17T01:19:13.105Z,21.51
2022-10-17T01:20:12.372Z,21.5
2022-10-17T01:21:12.247Z,21.515
2022-10-17T01:22:10.828Z,21.52
2022-10-17T01:23:12.489Z,21.52
2022-10-17T01:24:11.500Z,21.545
2022-10-17T01:25:11.638Z,21.55
2022-10-17T01:26:12.392Z,21.57
2022-10-17T01:27:12.116Z,21.565
2022-10-17T01:28:11.889Z,21.565
2022-10-17T01:29:11.839Z,21.575
2022-10-17T01:30:11.977Z,21.555
2022-10-17T01:31:11.588Z,21.555
2022-10-17T01:32:11.784Z,21.54
2022-10-17T01:33:11.768Z,21.53
2022-10-17T01:34:10.753Z,21.525
2022-10-17T01:35:11.710Z,21.495
2022-10-17T01:36:11.698Z,21.495
2022-10-17T01:37:10.959Z,21.49
2022-10-17T01:38:12.198Z,21.485
2022-10-17T01:39:11.217Z,21.485
2022-10-17T01:40:10.629Z,21.46
2022-10-17T01:41:10.917Z,21.405
2022-10-17T01:42:11.570Z,21.373
2022-10-17T01:43:11.179Z,21.373
2022-10-17T01:44:16.319Z,21.358
2022-10-17T01:45:11.401Z,21.3672
2022-10-17T01:46:12.717Z,21.3791
2022-10-17T01:47:12.374Z,21.35
2022-10-17T01:48:11.557Z,21.3683
2022-10-17T01:49:12.418Z,21.327
2022-10-17T01:50:12.373Z,21.305
2022-10-17T01:51:11.366Z,21.265
2022-10-17T01:52:11.891Z,21.275
2022-10-17T01:53:12.247Z,21.3
2022-10-17T01:54:09.761Z,21.3216
2022-10-17T01:55:11.213Z,21.29
2022-10-17T01:56:11.663Z,21.23
2022-10-17T01:57:11.408Z,21.255
2022-10-17T01:58:16.912Z,21.285
2022-10-17T01:59:11.842Z,21.27
2022-10-17T02:00:11.624Z,21.295
2022-10-17T02:01:11.448Z,21.275
2022-10-17T02:02:11.757Z,21.275
2022-10-17T02:03:12.003Z,21.285
2022-10-17T02:04:11.088Z,21.255
2022-10-17T02:05:11.301Z,21.275
2022-10-17T02:06:11.290Z,21.255
2022-10-17T02:07:11.596Z,21.305
2022-10-17T02:08:10.897Z,21.28
2022-10-17T02:09:10.935Z,21.275
2022-10-17T02:10:11.724Z,21.285
2022-10-17T02:11:11.002Z,21.305
2022-10-17T02:12:10.998Z,21.295
2022-10-17T02:13:11.973Z,21.295
2022-10-17T02:15:11.881Z,21.285
2022-10-17T02:16:11.112Z,21.285
2022-10-17T02:17:11.217Z,21.333
2022-10-17T02:18:11.116Z,21.339
2022-10-17T02:19:11.193Z,21.3
2022-10-17T02:20:11.354Z,21.2827
2022-10-17T02:21:12.031Z,21.347
2022-10-17T02:22:11.629Z,21.3683
2022-10-17T02:23:11.478Z,21.354
2022-10-17T02:24:11.989Z,21.3846
2022-10-17T02:25:11.735Z,21.38
2022-10-17T02:26:11.162Z,21.38
2022-10-17T02:27:12.773Z,21.383
2022-10-17T02:28:10.882Z,21.3909
2022-10-17T02:29:11.354Z,21.362
2022-10-17T02:30:11.805Z,21.358
2022-10-17T02:31:11.379Z,21.335
2022-10-17T02:32:10.443Z,21.339
2022-10-17T02:33:11.572Z,21.3741
2022-10-17T02:34:11.258Z,21.327
2022-10-17T02:35:10.373Z,21.345
2022-10-17T02:36:11.374Z,21.333
2022-10-17T02:37:11.365Z,21.367
2022-10-17T02:38:10.716Z,21.362
2022-10-17T02:39:11.690Z,21.35
2022-10-17T02:40:10.393Z,21.327
2022-10-17T02:41:11.194Z,21.333
2022-10-17T02:42:11.550Z,21.333
2022-10-17T02:43:10.904Z,21.373
2022-10-17T02:44:10.354Z,21.362
2022-10-17T02:45:11.594Z,21.333
2022-10-17T02:46:11.401Z,21.373
2022-10-17T02:47:10.760Z,21.405
2022-10-17T02:48:11.627Z,21.395
2022-10-17T02:49:11.283Z,21.385
2022-10-17T02:50:11.093Z,21.42
2022-10-17T02:51:11.571Z,21.415
2022-10-17T02:52:11.064Z,21.435
2022-10-17T02:53:11.890Z,21.405
2022-10-17T02:54:11.345Z,21.415
2022-10-17T02:55:11.061Z,21.39
2022-10-17T02:56:11.694Z,21.39
2022-10-17T02:57:11.352Z,21.395
2022-10-17T02:58:11.001Z,21.415
2022-10-17T02:59:11.704Z,21.44
2022-10-17T03:00:11.383Z,21.44
2022-10-17T03:01:11.321Z,21.43
2022-10-17T03:02:11.096Z,21.44
2022-10-17T03:03:11.715Z,21.415
2022-10-17T03:04:10.448Z,21.4
2022-10-17T03:05:11.909Z,21.385
2022-10-17T03:06:11.539Z,21.373
2022-10-17T03:07:10.735Z,21.395
2022-10-17T03:08:11.851Z,21.3741
2022-10-17T03:09:11.056Z,21.384
2022-10-17T03:10:10.911Z,21.356
2022-10-17T03:11:11.752Z,21.39
2022-10-17T03:12:10.993Z,21.43
2022-10-17T03:13:10.902Z,21.42
2022-10-17T03:14:15.711Z,21.402
2022-10-17T03:15:11.325Z,21.3736
2022-10-17T03:16:11.280Z,21.383
2022-10-17T03:17:11.666Z,21.395
2022-10-17T03:18:11.166Z,21.43
2022-10-17T03:19:11.764Z,21.425
2022-10-17T03:20:11.525Z,21.43
2022-10-17T03:21:10.821Z,21.42
2022-10-17T03:22:15.469Z,21.4446
2022-10-17T03:23:11.380Z,21.4509
2022-10-17T03:24:11.601Z,21.43
2022-10-17T03:25:11.744Z,21.425
2022-10-17T03:26:11.898Z,21.43
2022-10-17T03:27:11.217Z,21.435
2022-10-17T03:28:11.757Z,21.415
2022-10-17T03:29:12.073Z,21.405
2022-10-17T03:30:11.303Z,21.39
2022-10-17T03:31:12.118Z,21.41
2022-10-17T03:32:11.236Z,21.384
2022-10-17T03:33:10.955Z,21.362
2022-10-17T03:34:12.938Z,21.345
2022-10-17T03:35:14.868Z,21.3158
2022-10-17T03:36:10.492Z,21.333
2022-10-17T03:37:12.793Z,21.339
2022-10-17T03:38:11.714Z,21.311
2022-10-17T03:39:16.384Z,21.3216
2022-10-17T03:40:12.996Z,21.3216
2022-10-17T03:41:11.811Z,21.329
2022-10-17T03:42:11.422Z,21.3045
2022-10-17T03:43:12.179Z,21.363
2022-10-17T03:44:11.652Z,21.385
2022-10-17T03:45:11.460Z,21.38
2022-10-17T03:46:12.074Z,21.3746
2022-10-17T03:47:14.063Z,21.341
2022-10-17T03:48:11.419Z,21.362
2022-10-17T03:49:11.877Z,21.3792
2022-10-17T03:50:11.829Z,21.348
2022-10-17T03:51:11.511Z,21.3216
2022-10-17T03:52:12.438Z,21.333
2022-10-17T03:53:11.653Z,21.333
2022-10-17T03:54:12.590Z,21.3053
2022-10-17T03:55:11.803Z,21.2881
2022-10-17T03:56:11.484Z,21.275
2022-10-17T03:57:12.617Z,21.25
2022-10-17T03:58:11.965Z,21.255
2022-10-17T03:59:11.599Z,21.265
2022-10-17T04:00:12.306Z,21.255
2022-10-17T04:01:12.356Z,21.24
2022-10-17T04:02:11.818Z,21.255
2022-10-17T04:03:16.282Z,21.275
2022-10-17T04:04:12.209Z,21.28
2022-10-17T04:05:11.862Z,21.28
2022-10-17T04:06:12.014Z,21.29
2022-10-17T04:07:11.796Z,21.275
2022-10-17T04:08:12.072Z,21.255
2022-10-17T04:09:12.773Z,21.245
2022-10-17T04:10:12.045Z,21.23
2022-10-17T04:11:12.073Z,21.2
2022-10-17T04:12:12.055Z,21.199
2022-10-17T04:13:12.079Z,21.16
2022-10-17T04:14:13.000Z,21.155
2022-10-17T04:15:12.029Z,21.16
2022-10-17T04:16:12.137Z,21.205
2022-10-17T04:17:12.561Z,21.172
2022-10-17T04:18:12.153Z,21.166
2022-10-17T04:19:11.730Z,21.177
2022-10-17T04:20:12.347Z,21.2
2022-10-17T04:21:12.738Z,21.215
2022-10-17T04:22:11.451Z,21.23
2022-10-17T04:23:13.055Z,21.235
2022-10-17T04:24:12.490Z,21.215
2022-10-17T04:25:11.801Z,21.205
2022-10-17T04:26:12.968Z,21.24
2022-10-17T04:27:12.744Z,21.1891
2022-10-17T04:28:12.084Z,21.137
2022-10-17T04:29:12.674Z,21.155
2022-10-17T04:30:12.159Z,21.126
2022-10-17T04:31:11.441Z,21.1258
2022-10-17T04:32:16.506Z,21.105
2022-10-17T04:33:12.263Z,21.1316
2022-10-17T04:34:13.016Z,21.1783
2022-10-17T04:35:11.146Z,21.166
2022-10-17T04:36:12.621Z,21.177
2022-10-17T04:37:12.152Z,21.166
2022-10-17T04:38:12.022Z,21.172
2022-10-17T04:40:12.042Z,21.195
2022-10-17T04:41:11.426Z,21.165
2022-10-17T04:42:11.830Z,21.138
2022-10-17T04:43:12.203Z,21.1
2022-10-17T04:44:11.884Z,21.11
2022-10-17T04:45:11.801Z,21.115
2022-10-17T04:46:11.515Z,21.1258
2022-10-17T04:47:12.642Z,21.1316
2022-10-17T04:48:11.897Z,21.16
2022-10-17T04:49:11.679Z,21.155
2022-10-17T04:50:12.007Z,21.1208
2022-10-17T04:51:11.940Z,21.095
2022-10-17T04:52:11.191Z,21.11
2022-10-17T04:53:12.089Z,21.07
2022-10-17T04:54:11.658Z,21.055
2022-10-17T04:55:12.649Z,21.05
2022-10-17T04:56:13.203Z,20.995
2022-10-17T04:57:11.996Z,21
2022-10-17T04:58:11.872Z,20.975
2022-10-17T04:59:11.876Z,21.005
2022-10-17T05:00:11.746Z,21.01
2022-10-17T05:01:11.935Z,20.99
2022-10-17T05:02:12.141Z,20.97
2022-10-17T05:03:11.324Z,20.935
2022-10-17T05:04:10.814Z,20.93
2022-10-17T05:05:11.842Z,20.925
2022-10-17T05:06:10.833Z,20.9509
2022-10-17T05:07:11.921Z,20.9307
2022-10-17T05:08:10.928Z,20.94
2022-10-17T05:09:11.309Z,20.945
2022-10-17T05:10:12.136Z,20.967
2022-10-17T05:11:11.734Z,20.9727
2022-10-17T05:12:11.300Z,20.96
2022-10-17T05:13:11.890Z,20.9446
2022-10-17T05:14:10.819Z,20.945
2022-10-17T05:15:10.836Z,20.965
2022-10-17T05:16:13.591Z,20.9492
2022-10-17T05:17:10.920Z,21
2022-10-17T05:18:10.180Z,21.035
2022-10-17T05:19:11.587Z,21.04
2022-10-17T05:20:15.829Z,21.036
2022-10-17T05:21:10.488Z,21.0818
2022-10-17T05:22:11.665Z,21.095
2022-10-17T05:23:11.101Z,21.115
2022-10-17T05:24:10.755Z,21.115
2022-10-17T05:25:11.468Z,21.1208
2022-10-17T05:26:10.187Z,21.12
2022-10-17T05:27:10.752Z,21.143
2022-10-17T05:28:10.694Z,21.1316
2022-10-17T05:29:11.166Z,21.132
2022-10-17T05:30:11.075Z,21.08
2022-10-17T05:31:11.415Z,21.06
2022-10-17T05:32:11.068Z,21.05
2022-10-17T05:33:12.199Z,21.015
2022-10-17T05:34:13.170Z,21.04
2022-10-17T05:35:11.100Z,21.055
2022-10-17T05:36:11.664Z,21.07
2022-10-17T05:37:11.555Z,21.055
2022-10-17T05:38:12.105Z,21.12
2022-10-17T05:39:12.415Z,21.1316
2022-10-17T05:40:10.210Z,21.095
2022-10-17T05:41:10.590Z,21.11
2022-10-17T05:42:10.868Z,21.115
2022-10-17T05:43:10.734Z,21.126
2022-10-17T05:44:10.764Z,21.1316
2022-10-17T05:45:11.172Z,21.172
2022-10-17T05:46:11.100Z,21.24
2022-10-17T05:47:10.298Z,21.23
2022-10-17T05:48:11.805Z,21.285
2022-10-17T05:49:25.185Z,21.305
2022-10-17T05:50:10.055Z,21.305
2022-10-17T05:51:12.076Z,21.28
2022-10-17T05:52:10.760Z,21.333
2022-10-17T05:53:10.813Z,21.333
2022-10-17T05:54:11.962Z,21.333
2022-10-17T05:55:11.459Z,21.316
2022-10-17T05:56:10.701Z,21.345
2022-10-17T05:57:11.578Z,21.373
2022-10-17T05:58:17.728Z,21.3791
2022-10-17T05:59:11.949Z,21.385
2022-10-17T06:00:11.348Z,21.42
2022-10-17T06:01:12.741Z,21.42
2022-10-17T06:02:11.594Z,21.415
2022-10-17T06:03:11.463Z,21.415
2022-10-17T06:04:11.030Z,21.435
2022-10-17T06:05:12.702Z,21.48
2022-10-17T06:06:10.415Z,21.47
2022-10-17T06:07:10.660Z,21.485
2022-10-17T06:08:11.160Z,21.47
2022-10-17T06:09:11.056Z,21.475
2022-10-17T06:10:12.012Z,21.495
2022-10-17T06:11:14.344Z,21.525
2022-10-17T06:12:10.981Z,21.555
2022-10-17T06:13:11.608Z,21.555
2022-10-17T06:14:11.644Z,21.56
2022-10-17T06:15:11.093Z,21.575
2022-10-17T06:16:13.022Z,21.59
2022-10-17T06:17:15.763Z,21.6
2022-10-17T06:18:11.082Z,21.605
2022-10-17T06:19:11.268Z,21.616
2022-10-17T06:20:11.541Z,21.595
2022-10-17T06:21:11.276Z,21.605
2022-10-17T06:22:11.625Z,21.58
2022-10-17T06:23:11.356Z,21.585
2022-10-17T06:24:11.200Z,21.59
2022-10-17T06:25:11.668Z,21.638
2022-10-17T06:26:16.224Z,21.6258
2022-10-17T06:27:11.927Z,21.645
2022-10-17T06:28:11.688Z,21.668
2022-10-17T06:29:12.001Z,21.683
2022-10-17T06:30:11.093Z,21.69
2022-10-17T06:31:11.691Z,21.668
2022-10-17T06:32:14.281Z,21.7
2022-10-17T06:33:11.096Z,21.7009
2022-10-17T06:34:11.232Z,21.6891
2022-10-17T06:35:11.480Z,21.7227
2022-10-17T06:36:10.845Z,21.705
2022-10-17T06:37:11.546Z,21.72
2022-10-17T06:38:11.312Z,21.71
2022-10-17T06:39:10.929Z,21.725
2022-10-17T06:40:11.885Z,21.715
2022-10-17T06:41:11.237Z,21.695
2022-10-17T06:42:11.058Z,21.6783
2022-10-17T06:43:11.426Z,21.649
2022-10-17T06:44:11.369Z,21.666
2022-10-17T06:45:11.945Z,21.71
2022-10-17T06:46:12.755Z,21.745
2022-10-17T06:47:12.718Z,21.739
2022-10-17T06:48:11.987Z,21.775
2022-10-17T06:49:11.539Z,21.805
2022-10-17T06:50:12.135Z,21.845
2022-10-17T06:51:11.642Z,21.8683
2022-10-17T06:52:11.308Z,21.884
2022-10-17T06:53:12.012Z,21.915
2022-10-17T06:54:11.572Z,21.95
2022-10-17T06:55:12.020Z,21.99
2022-10-17T06:56:13.157Z,22.01
2022-10-17T06:57:11.793Z,22.05
2022-10-17T06:58:11.815Z,22.09
2022-10-17T06:59:12.603Z,22.115
2022-10-17T07:00:11.982Z,22.105
2022-10-17T07:01:11.833Z,22.1
2022-10-17T07:02:11.615Z,22.095
2022-10-17T07:03:12.050Z,22.137
2022-10-17T07:04:11.976Z,22.149
2022-10-17T07:05:11.641Z,22.194
2022-10-17T07:06:12.307Z,22.22
2022-10-17T07:07:11.983Z,22.26
2022-10-17T07:08:12.055Z,22.27
2022-10-17T07:09:12.339Z,22.301
2022-10-17T07:10:12.133Z,22.322
2022-10-17T07:11:12.066Z,22.333
2022-10-17T07:12:12.424Z,22.3216
2022-10-17T07:13:12.236Z,22.3791
2022-10-17T07:14:11.689Z,22.39
2022-10-17T07:15:12.922Z,22.425
2022-10-17T07:16:11.907Z,22.445
2022-10-17T07:17:11.861Z,22.42
2022-10-17T07:18:12.547Z,22.42
2022-10-17T07:19:11.818Z,22.445
2022-10-17T07:20:11.078Z,22.44
2022-10-17T07:21:12.860Z,22.45
2022-10-17T07:22:12.164Z,22.495
2022-10-17T07:23:13.252Z,22.49
2022-10-17T07:24:12.468Z,22.505
2022-10-17T07:25:12.152Z,22.48
2022-10-17T07:26:11.756Z,22.465
2022-10-17T07:27:12.312Z,22.46
2022-10-17T07:28:12.293Z,22.435
2022-10-17T07:29:11.317Z,22.435
2022-10-17T07:30:12.655Z,22.455
2022-10-17T07:31:12.460Z,22.45
2022-10-17T07:32:11.438Z,22.475
2022-10-17T07:33:12.198Z,22.47
2022-10-17T07:34:11.981Z,22.505
2022-10-17T07:35:12.662Z,22.505
2022-10-17T07:36:12.359Z,22.515
2022-10-17T07:37:12.369Z,22.53
2022-10-17T07:38:12.499Z,22.52
2022-10-17T07:39:12.424Z,22.51
2022-10-17T07:40:11.996Z,22.505
2022-10-17T07:41:15.367Z,22.455
2022-10-17T07:42:13.072Z,22.475
2022-10-17T07:43:12.070Z,22.46
2022-10-17T07:44:14.461Z,22.475
2022-10-17T07:45:12.522Z,22.45
2022-10-17T07:46:12.126Z,22.455
2022-10-17T07:47:12.699Z,22.455
2022-10-17T07:48:13.396Z,22.47
2022-10-17T07:49:11.611Z,22.4945
2022-10-17T07:50:12.588Z,22.49
2022-10-17T07:51:12.614Z,22.515
2022-10-17T07:52:12.136Z,22.505
2022-10-17T07:53:12.535Z,22.5092
2022-10-17T07:54:12.747Z,22.56
2022-10-17T07:55:11.716Z,22.61
2022-10-17T07:56:12.087Z,22.652
2022-10-17T07:57:12.014Z,22.699
2022-10-17T07:58:11.903Z,22.74
2022-10-17T07:59:12.915Z,22.775
2022-10-17T08:00:12.279Z,22.827
2022-10-17T08:01:14.880Z,22.8741
2022-10-17T08:02:12.351Z,22.92
2022-10-17T08:03:12.147Z,22.99
2022-10-17T08:04:11.801Z,23.025
2022-10-17T08:05:12.264Z,23.045
2022-10-17T08:06:12.082Z,23.065
2022-10-17T08:07:21.804Z,23.075
2022-10-17T08:08:12.599Z,23.1258
2022-10-17T08:09:11.861Z,23.175
2022-10-17T08:10:12.975Z,23.24
2022-10-17T08:11:11.951Z,23.275
2022-10-17T08:12:11.039Z,23.333
2022-10-17T08:13:11.286Z,23.3791
2022-10-17T08:14:11.812Z,23.41
2022-10-17T08:15:12.737Z,23.445
2022-10-17T08:16:11.964Z,23.485
2022-10-17T08:17:11.564Z,23.545
2022-10-17T08:18:12.264Z,23.57
2022-10-17T08:19:12.145Z,23.605
2022-10-17T08:20:16.007Z,23.678
2022-10-17T08:21:12.152Z,23.7172
2022-10-17T08:22:12.205Z,23.73
2022-10-17T08:23:11.139Z,23.74
2022-10-17T08:24:12.138Z,23.765
2022-10-17T08:25:11.472Z,23.8
2022-10-17T08:26:11.326Z,23.873
2022-10-17T08:27:12.294Z,23.905
2022-10-17T08:28:11.973Z,23.89
2022-10-17T08:29:11.339Z,23.895
2022-10-17T08:30:11.818Z,23.945
2022-10-17T08:31:11.120Z,23.95
2022-10-17T08:32:12.220Z,23.925
2022-10-17T08:33:11.705Z,23.935
2022-10-17T08:34:11.312Z,23.97
2022-10-17T08:35:12.383Z,24
2022-10-17T08:36:11.435Z,23.99
2022-10-17T08:37:12.170Z,24.01
2022-10-17T08:38:13.405Z,24.03
2022-10-17T08:39:11.445Z,24.025
2022-10-17T08:40:11.817Z,24.065
2022-10-17T08:41:16.464Z,24.0692
2022-10-17T08:42:11.705Z,24.065
2022-10-17T08:43:16.190Z,24.1
2022-10-17T08:44:11.921Z,24.105
2022-10-17T08:45:11.138Z,24.1258
2022-10-17T08:46:11.591Z,24.155
2022-10-17T08:47:16.528Z,24.16
2022-10-17T08:48:11.344Z,24.16
2022-10-17T08:49:12.054Z,24.16
2022-10-17T08:50:11.631Z,24.188
2022-10-17T08:51:10.987Z,24.205
2022-10-17T08:52:11.853Z,24.22
2022-10-17T08:53:11.599Z,24.245
2022-10-17T08:54:10.047Z,24.21
2022-10-17T08:55:13.170Z,24.225
2022-10-17T08:56:19.512Z,24.255
2022-10-17T08:57:10.763Z,24.27
2022-10-17T08:58:11.668Z,24.31
2022-10-17T08:59:11.356Z,24.35
2022-10-17T09:00:10.853Z,24.41
2022-10-17T09:01:13.228Z,24.495
2022-10-17T09:02:11.241Z,24.535
2022-10-17T09:03:11.893Z,24.585
2022-10-17T09:04:11.513Z,24.644
2022-10-17T09:05:10.983Z,24.715
2022-10-17T09:06:11.726Z,24.8108
2022-10-17T09:07:10.914Z,24.872
2022-10-17T09:08:10.820Z,24.95
2022-10-17T09:09:11.173Z,25.005
2022-10-17T09:10:11.158Z,25.065
2022-10-17T09:11:10.722Z,25.17
2022-10-17T09:12:11.463Z,25.2638
2022-10-17T09:13:11.108Z,25.29
2022-10-17T09:14:11.894Z,25.3108
2022-10-17T09:15:11.433Z,25.378
2022-10-17T09:16:11.170Z,25.45
2022-10-17T09:17:11.748Z,25.5461
2022-10-17T09:18:11.359Z,25.606
2022-10-17T09:19:11.221Z,25.689
2022-10-17T09:20:12.113Z,25.763
2022-10-17T09:21:11.423Z,25.8045
2022-10-17T09:22:10.717Z,25.827
2022-10-17T09:23:11.006Z,25.89
2022-10-17T09:24:15.895Z,25.915
2022-10-17T09:25:11.384Z,25.955
2022-10-17T09:26:11.066Z,25.995
2022-10-17T09:27:11.914Z,26.04
2022-10-17T09:28:11.136Z,26.035
2022-10-17T09:29:10.554Z,26.07
2022-10-17T09:30:17.190Z,26.075
2022-10-17T09:31:11.768Z,26.06
2022-10-17T09:32:11.122Z,26.05
2022-10-17T09:33:23.101Z,26.045
2022-10-17T09:34:11.423Z,26.04
2022-10-17T09:35:11.102Z,26.035
2022-10-17T09:36:11.663Z,26.035
2022-10-17T09:37:11.377Z,26.045
2022-10-17T09:38:11.334Z,26.055
2022-10-17T09:39:11.629Z,26.025
2022-10-17T09:40:10.982Z,26.02
2022-10-17T09:41:32.081Z,26.06
2022-10-17T09:42:11.552Z,26.055
2022-10-17T09:43:11.970Z,26.06
2022-10-17T09:44:11.313Z,26.095
2022-10-17T09:45:11.468Z,26.11
2022-10-17T09:46:11.256Z,26.111
2022-10-17T09:47:11.538Z,26.149
2022-10-17T09:48:11.347Z,26.155
2022-10-17T09:49:13.512Z,26.155
2022-10-17T09:50:11.878Z,26.166
2022-10-17T09:51:21.990Z,26.1891
2022-10-17T09:52:10.808Z,26.235
2022-10-17T09:53:11.632Z,26.255
2022-10-17T09:54:11.511Z,26.245
2022-10-17T09:55:11.053Z,26.295
2022-10-17T09:56:11.684Z,26.339
2022-10-17T09:57:11.516Z,26.322
2022-10-17T09:58:11.115Z,26.333
2022-10-17T09:59:13.801Z,26.327
2022-10-17T10:00:11.679Z,26.3683
2022-10-17T10:01:11.172Z,26.415
2022-10-17T10:02:11.554Z,26.445
2022-10-17T10:03:12.331Z,26.485
2022-10-17T10:04:11.202Z,26.525
2022-10-17T10:05:11.661Z,26.56
2022-10-17T10:06:11.422Z,26.61
2022-10-17T10:07:11.967Z,26.621
2022-10-17T10:08:11.540Z,26.623
2022-10-17T10:09:11.546Z,26.61
2022-10-17T10:10:11.697Z,26.621
2022-10-17T10:11:13.837Z,26.59
2022-10-17T10:12:10.895Z,26.57
2022-10-17T10:13:11.746Z,26.61
2022-10-17T10:14:11.405Z,26.575
2022-10-17T10:15:11.767Z,26.585
2022-10-17T10:16:11.428Z,26.585
2022-10-17T10:17:11.513Z,26.61
2022-10-17T10:18:11.934Z,26.616
2022-10-17T10:19:11.817Z,26.644
2022-10-17T10:20:11.345Z,26.693
2022-10-17T10:21:11.848Z,26.735
2022-10-17T10:22:11.569Z,26.816
2022-10-17T10:23:11.549Z,26.877
2022-10-17T10:24:12.292Z,26.93
2022-10-17T10:25:15.977Z,26.985
2022-10-17T10:26:12.455Z,27.02
2022-10-17T10:27:11.781Z,27.02
2022-10-17T10:28:11.785Z,27.045
2022-10-17T10:29:12.723Z,27.03
2022-10-17T10:30:11.818Z,27.06
2022-10-17T10:31:11.859Z,27.015
2022-10-17T10:32:12.609Z,27.045
2022-10-17T10:33:11.764Z,26.995
2022-10-17T10:34:12.342Z,26.935
2022-10-17T10:35:12.147Z,26.92
2022-10-17T10:36:12.283Z,26.889
2022-10-17T10:37:13.527Z,26.854
2022-10-17T10:38:12.056Z,26.863
2022-10-17T10:39:11.877Z,26.823
2022-10-17T10:40:11.743Z,26.811
2022-10-17T10:41:12.247Z,26.73
2022-10-17T10:42:12.838Z,26.7227
2022-10-17T10:43:11.793Z,26.6783
2022-10-17T10:44:12.124Z,26.638
2022-10-17T10:45:23.651Z,26.58
2022-10-17T10:46:11.833Z,26.57
2022-10-17T10:47:12.042Z,26.555
2022-10-17T10:48:11.863Z,26.55
2022-10-17T10:49:11.485Z,26.535
2022-10-17T10:50:12.129Z,26.5
2022-10-17T10:51:11.899Z,26.44
2022-10-17T10:52:11.947Z,26.415
2022-10-17T10:53:12.046Z,26.388
2022-10-17T10:54:12.419Z,26.35
2022-10-17T10:55:12.321Z,26.285
2022-10-17T10:56:12.078Z,26.265
2022-10-17T10:57:11.721Z,26.27
2022-10-17T10:58:11.976Z,26.25
2022-10-17T10:59:12.261Z,26.225
2022-10-17T11:00:11.759Z,26.215
2022-10-17T11:01:11.864Z,26.22
2022-10-17T11:02:12.125Z,26.225
2022-10-17T11:03:13.010Z,26.24
2022-10-17T11:04:11.764Z,26.22
2022-10-17T11:05:12.681Z,26.23
2022-10-17T11:06:12.798Z,26.1891
2022-10-17T11:07:12.408Z,26.195
2022-10-17T11:08:12.556Z,26.215
2022-10-17T11:09:12.463Z,26.1841
2022-10-17T11:10:15.763Z,26.1992
2022-10-17T11:11:12.898Z,26.189
2022-10-17T11:12:12.926Z,26.21
2022-10-17T11:13:12.750Z,26.2
2022-10-17T11:14:13.819Z,26.1841
2022-10-17T11:15:12.605Z,26.1316
2022-10-17T11:16:12.089Z,26.1208
2022-10-17T11:17:12.098Z,26.137
2022-10-17T11:18:12.035Z,26.172
2022-10-17T11:19:11.654Z,26.155
2022-10-17T11:20:12.851Z,26.1841
2022-10-17T11:21:12.715Z,26.205
2022-10-17T11:22:11.890Z,26.195
2022-10-17T11:23:12.082Z,26.183
2022-10-17T11:24:12.414Z,26.199
2022-10-17T11:25:13.749Z,26.195
2022-10-17T11:26:11.146Z,26.166
2022-10-17T11:27:11.827Z,26.143
2022-10-17T11:28:13.065Z,26.143
2022-10-17T11:29:12.693Z,26.149
2022-10-17T11:30:10.721Z,26.155
2022-10-17T11:31:12.022Z,26.12
2022-10-17T11:32:11.859Z,26.149
2022-10-17T11:33:11.423Z,26.137
2022-10-17T11:34:12.104Z,26.16
2022-10-17T11:35:11.884Z,26.155
2022-10-17T11:36:11.518Z,26.149
2022-10-17T11:37:12.218Z,26.143
2022-10-17T11:38:11.808Z,26.137
2022-10-17T11:39:12.417Z,26.1258
2022-10-17T11:40:11.651Z,26.143
2022-10-17T11:41:11.101Z,26.1783
2022-10-17T11:42:10.797Z,26.172
2022-10-17T11:43:11.769Z,26.193
2022-10-17T11:44:11.450Z,26.21
2022-10-17T11:45:11.271Z,26.24
2022-10-17T11:46:13.308Z,26.22
2022-10-17T11:47:11.239Z,26.215
2022-10-17T11:48:11.051Z,26.205
2022-10-17T11:49:14.969Z,26.194
2022-10-17T11:52:11.576Z,26.24
2022-10-17T11:53:11.332Z,26.25
2022-10-17T11:54:11.749Z,26.285
2022-10-17T11:55:10.953Z,26.285
2022-10-17T11:56:11.182Z,26.322
2022-10-17T11:57:13.951Z,26.335
2022-10-17T11:58:11.225Z,26.353
2022-10-17T11:59:11.585Z,26.3741
2022-10-17T12:00:11.369Z,26.36
2022-10-17T12:01:11.553Z,26.358
2022-10-17T12:02:11.278Z,26.36
2022-10-17T12:03:11.003Z,26.367
2022-10-17T12:04:11.514Z,26.383
2022-10-17T12:05:11.391Z,26.3672
2022-10-17T12:06:11.184Z,26.327
2022-10-17T12:07:11.855Z,26.328
2022-10-17T12:08:11.321Z,26.29
2022-10-17T12:09:10.898Z,26.28
2022-10-17T12:10:11.491Z,26.275
2022-10-17T12:11:11.381Z,26.27
2022-10-17T12:12:10.897Z,26.305
2022-10-17T12:13:11.498Z,26.285
2022-10-17T12:14:10.944Z,26.3108
2022-10-17T12:15:11.776Z,26.322
2022-10-17T12:16:15.844Z,26.339
2022-10-17T12:17:11.374Z,26.345
2022-10-17T12:18:11.885Z,26.35
2022-10-17T12:19:11.790Z,26.373
2022-10-17T12:20:11.534Z,26.373
2022-10-17T12:21:11.755Z,26.384
2022-10-17T12:22:11.396Z,26.405
2022-10-17T12:23:11.478Z,26.43
2022-10-17T12:24:12.678Z,26.43
2022-10-17T12:25:12.080Z,26.405
2022-10-17T12:26:11.164Z,26.41
2022-10-17T12:27:11.366Z,26.384
2022-10-17T12:28:11.321Z,26.373
2022-10-17T12:29:11.485Z,26.35
2022-10-17T12:30:11.422Z,26.35
2022-10-17T12:31:10.887Z,26.333
2022-10-17T12:32:11.342Z,26.34
2022-10-17T12:33:14.842Z,26.296
2022-10-17T12:34:12.682Z,26.2772
2022-10-17T12:35:11.769Z,26.295
2022-10-17T12:36:11.123Z,26.295
2022-10-17T12:37:11.685Z,26.295
2022-10-17T12:38:11.260Z,26.275